createdAt,value
2023-05-19T00:02:01.592Z,1.92
2023-05-19T00:04:28.362Z,2.00
2023-05-19T00:06:55.250Z,2.53
2023-05-19T00:09:22.083Z,2.30
2023-05-19T00:11:48.774Z,2.20
2023-05-19T00:14:15.528Z,2.20
2023-05-19T00:16:42.726Z,1.92
2023-05-19T00:19:12.281Z,2.10
2023-05-19T00:21:39.057Z,2.30
2023-05-19T00:24:06.445Z,2.05
2023-05-19T00:26:32.998Z,2.20
2023-05-19T00:28:59.629Z,2.22
2023-05-19T00:31:26.147Z,2.30
2023-05-19T00:33:53.821Z,2.30
2023-05-19T00:36:20.428Z,2.08
2023-05-19T00:38:46.875Z,2.08
2023-05-19T00:41:13.424Z,2.25
2023-05-19T00:43:40.201Z,2.58
2023-05-19T00:46:07.480Z,2.10
2023-05-19T00:48:34.160Z,2.95
2023-05-19T00:51:06.408Z,2.17
2023-05-19T00:53:33.896Z,2.13
2023-05-19T00:56:01.954Z,1.88
2023-05-19T00:58:30.572Z,2.20
2023-05-19T01:01:03.533Z,2.42
2023-05-19T01:03:32.488Z,2.17
2023-05-19T01:06:01.675Z,2.00
2023-05-19T01:08:29.320Z,2.38
2023-05-19T01:10:55.938Z,1.83
2023-05-19T01:13:22.894Z,2.17
2023-05-19T01:16:13.109Z,2.13
2023-05-19T01:18:58.744Z,2.50
2023-05-19T01:21:37.448Z,2.72
2023-05-19T01:24:32.344Z,2.07
2023-05-19T01:27:14.402Z,2.70
2023-05-19T01:29:59.265Z,2.20
2023-05-19T01:32:25.727Z,2.60
2023-05-19T01:34:54.106Z,2.50
2023-05-19T01:37:21.605Z,2.60
2023-05-19T01:39:48.501Z,2.17
2023-05-19T01:42:15.277Z,2.45
2023-05-19T01:44:42.253Z,2.33
2023-05-19T01:47:10.842Z,2.55
2023-05-19T01:49:37.308Z,2.90
2023-05-19T01:52:04.035Z,2.45
2023-05-19T01:54:30.624Z,2.45
2023-05-19T01:57:08.909Z,2.63
2023-05-19T01:59:53.739Z,2.30
2023-05-19T02:03:01.111Z,2.83
2023-05-19T02:05:53.642Z,2.40
2023-05-19T02:08:25.605Z,2.20
2023-05-19T02:10:58.184Z,2.40
2023-05-19T02:13:31.266Z,2.53
2023-05-19T02:16:04.603Z,2.47
2023-05-19T02:18:33.344Z,2.28
2023-05-19T02:20:59.811Z,2.80
2023-05-19T02:23:26.434Z,2.25
2023-05-19T02:25:53.301Z,2.30
2023-05-19T02:28:19.870Z,2.90
2023-05-19T02:30:46.302Z,2.55
2023-05-19T02:33:12.780Z,2.22
2023-05-19T02:35:39.297Z,2.03
2023-05-19T02:38:06.969Z,2.58
2023-05-19T02:40:33.712Z,2.47
2023-05-19T02:43:00.482Z,2.53
2023-05-19T02:45:28.627Z,2.60
2023-05-19T02:47:55.374Z,2.92
2023-05-19T02:50:22.557Z,3.15
2023-05-19T02:52:48.995Z,2.40
2023-05-19T02:55:17.140Z,2.72
2023-05-19T02:57:43.972Z,2.42
2023-05-19T03:00:11.125Z,2.80
2023-05-19T03:02:37.657Z,2.40
2023-05-19T03:05:04.628Z,2.60
2023-05-19T03:07:31.146Z,2.50
2023-05-19T03:09:57.617Z,2.92
2023-05-19T03:12:24.519Z,2.90
2023-05-19T03:14:51.098Z,2.53
2023-05-19T03:17:17.641Z,2.70
2023-05-19T03:19:44.142Z,3.05
2023-05-19T03:22:10.816Z,2.92
2023-05-19T03:24:37.218Z,2.47
2023-05-19T03:27:05.786Z,2.33
2023-05-19T03:29:32.294Z,2.40
2023-05-19T03:31:59.847Z,2.78
2023-05-19T03:34:26.429Z,3.58
2023-05-19T03:36:52.863Z,2.30
2023-05-19T03:39:19.805Z,2.47
2023-05-19T03:41:46.197Z,2.90
2023-05-19T03:44:12.617Z,2.67
2023-05-19T03:46:39.107Z,2.70
2023-05-19T03:49:05.561Z,3.20
2023-05-19T03:51:32.084Z,2.97
2023-05-19T03:53:58.509Z,2.33
2023-05-19T03:56:27.403Z,2.65
2023-05-19T03:58:54.780Z,2.63
2023-05-19T04:01:21.216Z,2.83
2023-05-19T04:03:47.719Z,2.42
2023-05-19T04:06:14.265Z,2.47
2023-05-19T04:08:40.665Z,2.58
2023-05-19T04:11:07.152Z,2.20
2023-05-19T04:13:34.601Z,2.70
2023-05-19T04:16:01.666Z,2.70
2023-05-19T04:18:29.258Z,2.77
2023-05-19T04:20:56.170Z,2.80
2023-05-19T04:23:22.662Z,3.42
2023-05-19T04:25:49.602Z,3.03
2023-05-19T04:28:16.130Z,2.97
2023-05-19T04:30:42.638Z,3.20
2023-05-19T04:33:12.020Z,3.47
2023-05-19T04:35:39.720Z,3.15
2023-05-19T04:38:06.150Z,3.38
2023-05-19T04:40:32.888Z,3.10
2023-05-19T04:43:01.952Z,3.23
2023-05-19T04:45:28.650Z,3.42
2023-05-19T04:47:58.153Z,3.15
2023-05-19T04:50:25.260Z,3.05
2023-05-19T04:52:51.684Z,3.90
2023-05-19T04:55:18.184Z,3.27
2023-05-19T04:57:44.633Z,3.53
2023-05-19T05:00:14.390Z,3.63
2023-05-19T05:02:42.870Z,3.17
2023-05-19T05:05:10.116Z,3.67
2023-05-19T05:07:36.647Z,3.23
2023-05-19T05:10:03.970Z,3.25
2023-05-19T05:12:31.151Z,3.65
2023-05-19T05:14:58.234Z,3.47
2023-05-19T05:17:25.751Z,3.90
2023-05-19T05:19:52.869Z,3.57
2023-05-19T05:22:19.801Z,4.10
2023-05-19T05:24:46.637Z,4.30
2023-05-19T05:27:13.639Z,3.70
2023-05-19T05:29:40.161Z,3.58
2023-05-19T05:32:07.880Z,4.20
2023-05-19T05:34:35.663Z,4.20
2023-05-19T05:37:02.094Z,4.22
2023-05-19T05:39:28.769Z,3.60
2023-05-19T05:41:55.464Z,3.83
2023-05-19T05:44:21.927Z,3.80
2023-05-19T05:46:48.718Z,4.10
2023-05-19T05:49:15.394Z,4.05
2023-05-19T05:51:44.620Z,4.07
2023-05-19T05:54:21.490Z,4.50
2023-05-19T05:56:48.984Z,3.67
2023-05-19T05:59:15.398Z,4.05
2023-05-19T06:01:43.936Z,4.15
2023-05-19T06:04:10.937Z,3.92
2023-05-19T06:06:38.092Z,4.07
2023-05-19T06:09:04.581Z,3.80
2023-05-19T06:11:33.612Z,3.70
2023-05-19T06:14:00.194Z,3.80
2023-05-19T06:16:26.766Z,3.88
2023-05-19T06:18:53.651Z,4.43
2023-05-19T06:21:20.515Z,4.03
2023-05-19T06:23:46.900Z,4.32
2023-05-19T06:26:13.434Z,3.75
2023-05-19T06:28:39.908Z,3.88
2023-05-19T06:31:06.599Z,3.63
2023-05-19T06:33:33.049Z,3.97
2023-05-19T06:35:59.612Z,4.20
2023-05-19T06:38:26.180Z,4.03
2023-05-19T06:40:52.685Z,4.35
2023-05-19T06:43:19.156Z,4.13
2023-05-19T06:45:45.644Z,4.60
2023-05-19T06:48:12.085Z,4.70
2023-05-19T06:50:38.573Z,4.43
2023-05-19T06:53:06.184Z,4.30
2023-05-19T06:55:34.386Z,4.15
2023-05-19T06:58:02.224Z,4.23
2023-05-19T07:00:28.850Z,5.40
2023-05-19T07:02:55.440Z,4.00
2023-05-19T07:05:22.182Z,4.13
2023-05-19T07:07:48.603Z,4.22
2023-05-19T07:10:15.092Z,4.10
2023-05-19T07:12:41.957Z,3.80
2023-05-19T07:15:08.720Z,3.50
2023-05-19T07:17:35.238Z,3.92
2023-05-19T07:20:01.806Z,4.50
2023-05-19T07:22:28.279Z,3.70
2023-05-19T07:24:57.039Z,3.72
2023-05-19T07:27:23.519Z,3.70
2023-05-19T07:29:49.963Z,3.40
2023-05-19T07:32:16.552Z,3.08
2023-05-19T07:34:43.147Z,3.00
2023-05-19T07:37:09.719Z,3.10
2023-05-19T07:39:36.156Z,2.70
2023-05-19T07:42:02.965Z,3.30
2023-05-19T07:44:31.370Z,3.20
2023-05-19T07:46:58.012Z,2.73
2023-05-19T07:49:24.535Z,2.58
2023-05-19T07:51:51.012Z,2.78
2023-05-19T07:54:17.459Z,2.60
2023-05-19T07:56:44.104Z,2.58
2023-05-19T07:59:10.767Z,2.00
2023-05-19T08:01:37.404Z,2.33
2023-05-19T08:04:05.285Z,2.53
2023-05-19T08:06:32.039Z,2.58
2023-05-19T08:08:58.619Z,2.38
2023-05-19T08:11:25.276Z,1.90
2023-05-19T08:13:51.718Z,1.83
2023-05-19T08:16:18.650Z,1.88
2023-05-19T08:18:45.177Z,1.45
2023-05-19T08:21:11.812Z,1.95
2023-05-19T08:23:38.668Z,1.30
2023-05-19T08:26:05.607Z,1.30
2023-05-19T08:28:32.155Z,1.50
2023-05-19T08:30:58.754Z,1.42
2023-05-19T08:33:25.358Z,1.20
2023-05-19T08:35:51.774Z,1.43
2023-05-19T08:38:18.382Z,1.27
2023-05-19T08:40:47.245Z,1.23
2023-05-19T08:43:14.072Z,1.27
2023-05-19T08:45:48.313Z,1.05
2023-05-19T08:48:17.768Z,0.90
2023-05-19T08:50:56.616Z,1.40
2023-05-19T08:53:33.730Z,1.08
2023-05-19T08:56:11.034Z,0.90
2023-05-19T08:58:40.568Z,1.58
2023-05-19T09:01:08.414Z,1.23
2023-05-19T09:03:38.403Z,1.10
2023-05-19T09:06:08.875Z,0.93
2023-05-19T09:08:36.532Z,1.13
2023-05-19T09:11:03.254Z,0.90
2023-05-19T09:13:30.200Z,1.53
2023-05-19T09:15:57.783Z,1.15
2023-05-19T09:18:28.311Z,1.50
2023-05-19T09:21:04.768Z,1.60
2023-05-19T09:23:36.017Z,1.33
2023-05-19T09:26:04.409Z,1.90
2023-05-19T09:28:36.270Z,1.63
2023-05-19T09:31:04.900Z,1.30
2023-05-19T09:33:34.257Z,1.60
2023-05-19T09:36:01.167Z,1.50
2023-05-19T09:38:28.140Z,1.47
2023-05-19T09:40:58.942Z,1.08
2023-05-19T09:43:29.687Z,1.45
2023-05-19T09:46:00.724Z,1.75
2023-05-19T09:48:27.966Z,1.50
2023-05-19T09:50:54.654Z,1.60
2023-05-19T09:53:22.162Z,1.40
2023-05-19T09:55:49.891Z,1.40
2023-05-19T09:58:19.887Z,1.40
2023-05-19T10:00:47.685Z,1.40
2023-05-19T10:03:16.408Z,1.40
2023-05-19T10:05:43.657Z,1.30
2023-05-19T10:08:11.724Z,1.10
2023-05-19T10:10:38.971Z,1.38
2023-05-19T10:13:06.235Z,1.45
2023-05-19T10:15:36.085Z,1.60
2023-05-19T10:18:06.955Z,1.13
2023-05-19T10:20:35.192Z,1.45
2023-05-19T10:23:03.007Z,1.42
2023-05-19T10:25:32.394Z,1.48
2023-05-19T10:28:07.832Z,1.77
2023-05-19T10:30:41.145Z,1.55
2023-05-19T10:33:10.901Z,1.38
2023-05-19T10:35:48.712Z,1.20
2023-05-19T10:38:34.058Z,1.67
2023-05-19T10:41:28.765Z,1.60
2023-05-19T10:44:17.368Z,1.83
2023-05-19T10:46:43.885Z,1.52
2023-05-19T10:49:10.553Z,1.65
2023-05-19T10:51:37.237Z,1.42
2023-05-19T10:54:11.470Z,1.50
2023-05-19T10:56:42.299Z,1.60
2023-05-19T10:59:34.720Z,1.75
2023-05-19T11:02:05.966Z,1.85
2023-05-19T11:04:53.486Z,1.92
2023-05-19T11:07:21.772Z,3.07
2023-05-19T11:09:54.541Z,1.77
2023-05-19T11:12:24.567Z,1.95
2023-05-19T11:14:55.240Z,1.50
2023-05-19T11:17:23.652Z,1.73
2023-05-19T11:19:57.715Z,2.40
2023-05-19T11:22:26.248Z,1.33
2023-05-19T11:24:55.415Z,1.80
2023-05-19T11:27:31.139Z,1.73
2023-05-19T11:30:02.219Z,1.25
2023-05-19T11:32:31.045Z,1.70
2023-05-19T11:34:58.123Z,1.60
2023-05-19T11:37:24.762Z,1.40
2023-05-19T11:39:52.709Z,1.80
2023-05-19T11:42:19.287Z,1.40
2023-05-19T11:44:46.425Z,1.70
2023-05-19T11:47:14.235Z,1.70
2023-05-19T11:49:45.980Z,1.13
2023-05-19T11:52:12.847Z,1.23
2023-05-19T11:54:41.735Z,1.70
2023-05-19T11:57:11.319Z,1.10
2023-05-19T11:59:40.625Z,1.40
2023-05-19T12:02:13.879Z,1.52
2023-05-19T12:04:40.515Z,1.90
2023-05-19T12:07:07.193Z,1.42
2023-05-19T12:09:33.831Z,1.23
2023-05-19T12:12:00.962Z,1.50
2023-05-19T12:14:34.462Z,1.15
2023-05-19T12:17:10.409Z,1.77
2023-05-19T12:19:37.478Z,1.20
2023-05-19T12:22:05.180Z,1.00
2023-05-19T12:24:33.932Z,1.33
2023-05-19T12:27:10.332Z,1.45
2023-05-19T12:29:38.657Z,1.40
2023-05-19T12:32:08.002Z,2.10
2023-05-19T12:34:38.436Z,1.93
2023-05-19T12:37:05.896Z,2.40
2023-05-19T12:39:33.839Z,2.10
2023-05-19T12:42:04.263Z,2.05
2023-05-19T12:44:31.536Z,2.22
2023-05-19T12:46:59.500Z,2.57
2023-05-19T12:49:25.986Z,2.17
2023-05-19T12:51:53.888Z,2.58
2023-05-19T12:54:23.166Z,2.50
2023-05-19T12:56:53.412Z,1.92
2023-05-19T12:59:37.390Z,2.03
2023-05-19T13:02:04.853Z,2.00
2023-05-19T13:04:31.535Z,2.13
2023-05-19T13:06:58.107Z,2.28
2023-05-19T13:09:24.538Z,1.60
2023-05-19T13:11:52.137Z,2.10
2023-05-19T13:14:18.740Z,2.20
2023-05-19T13:16:46.354Z,1.80
2023-05-19T13:19:25.096Z,2.08
2023-05-19T13:21:52.523Z,1.77
2023-05-19T13:24:19.022Z,1.87
2023-05-19T13:26:45.716Z,1.70
2023-05-19T13:29:12.254Z,2.22
2023-05-19T13:31:38.795Z,1.70
2023-05-19T13:34:05.443Z,1.90
2023-05-19T13:36:33.363Z,1.77
2023-05-19T13:39:00.805Z,1.80
2023-05-19T13:41:29.270Z,1.73
2023-05-19T13:43:59.619Z,2.10
2023-05-19T13:46:36.510Z,2.17
2023-05-19T13:49:10.327Z,1.90
2023-05-19T13:51:37.586Z,2.58
2023-05-19T13:54:05.074Z,2.30
2023-05-19T13:56:31.845Z,1.75
2023-05-19T13:58:58.417Z,1.50
2023-05-19T14:01:25.076Z,1.70
2023-05-19T14:03:52.547Z,2.08
2023-05-19T14:06:19.548Z,1.80
2023-05-19T14:08:46.184Z,1.90
2023-05-19T14:11:22.520Z,1.88
2023-05-19T14:13:53.041Z,2.23
2023-05-19T14:16:22.118Z,2.05
2023-05-19T14:18:49.227Z,1.92
2023-05-19T14:21:15.882Z,1.67
2023-05-19T14:23:42.351Z,2.05
2023-05-19T14:26:08.837Z,2.17
2023-05-19T14:28:35.271Z,2.15
2023-05-19T14:31:03.098Z,1.85
2023-05-19T14:33:32.774Z,1.75
2023-05-19T14:36:01.588Z,1.58
2023-05-19T14:38:29.350Z,1.87
2023-05-19T14:40:56.097Z,1.25
2023-05-19T14:43:22.693Z,1.50
2023-05-19T14:45:49.489Z,1.40
2023-05-19T14:48:16.230Z,1.67
2023-05-19T14:50:42.908Z,1.60
2023-05-19T14:53:09.451Z,1.60
2023-05-19T14:55:36.022Z,1.73
2023-05-19T14:58:04.534Z,1.80
2023-05-19T15:00:34.809Z,1.40
2023-05-19T15:03:01.630Z,1.60
2023-05-19T15:05:28.172Z,1.50
2023-05-19T15:07:54.606Z,1.88
2023-05-19T15:10:21.250Z,1.77
2023-05-19T15:12:48.349Z,1.52
2023-05-19T15:15:17.663Z,2.00
2023-05-19T15:17:46.981Z,1.35
2023-05-19T15:20:13.929Z,1.50
2023-05-19T15:22:40.670Z,1.52
2023-05-19T15:25:07.946Z,1.30
2023-05-19T15:27:36.344Z,1.20
2023-05-19T15:30:04.098Z,1.42
2023-05-19T15:32:30.887Z,1.50
2023-05-19T15:34:57.619Z,1.38
2023-05-19T15:37:24.059Z,1.67
2023-05-19T15:39:50.674Z,1.50
2023-05-19T15:42:17.064Z,1.63
2023-05-19T15:44:45.967Z,1.58
2023-05-19T15:47:12.469Z,1.65
2023-05-19T15:49:38.978Z,1.60
2023-05-19T15:52:05.704Z,1.40
2023-05-19T15:54:32.345Z,1.88
2023-05-19T15:56:58.817Z,1.70
2023-05-19T15:59:25.200Z,1.60
2023-05-19T16:01:53.143Z,1.90
2023-05-19T16:04:19.899Z,1.40
2023-05-19T16:06:46.614Z,1.80
2023-05-19T16:09:13.086Z,1.52
2023-05-19T16:11:39.578Z,1.63
2023-05-19T16:14:05.949Z,1.52
2023-05-19T16:16:32.410Z,1.37
2023-05-19T16:18:58.976Z,1.80
2023-05-19T16:21:25.503Z,1.67
2023-05-19T16:23:51.951Z,1.58
2023-05-19T16:26:18.510Z,1.42
2023-05-19T16:28:44.962Z,1.60
2023-05-19T16:31:11.569Z,1.60
2023-05-19T16:33:38.081Z,1.60
2023-05-19T16:36:06.316Z,2.83
2023-05-19T16:38:33.968Z,1.73
2023-05-19T16:41:00.526Z,1.70
2023-05-19T16:43:26.968Z,1.73
2023-05-19T16:45:53.501Z,1.90
2023-05-19T16:48:19.936Z,1.80
2023-05-19T16:50:48.684Z,2.00
2023-05-19T16:53:15.187Z,1.87
2023-05-19T16:55:41.592Z,1.80
2023-05-19T16:58:08.054Z,2.00
2023-05-19T17:00:34.828Z,1.73
2023-05-19T17:03:01.683Z,1.70
2023-05-19T17:05:28.943Z,1.73
2023-05-19T17:07:55.466Z,1.60
2023-05-19T17:10:22.085Z,1.83
2023-05-19T17:12:48.615Z,1.95
2023-05-19T17:15:15.604Z,1.92
2023-05-19T17:17:42.072Z,1.83
2023-05-19T17:20:08.977Z,1.88
2023-05-19T17:22:35.596Z,1.40
2023-05-19T17:25:02.113Z,1.77
2023-05-19T17:27:28.579Z,1.55
2023-05-19T17:29:55.099Z,1.70
2023-05-19T17:32:28.144Z,1.50
2023-05-19T17:34:54.685Z,2.00
2023-05-19T17:37:25.538Z,2.10
2023-05-19T17:39:52.068Z,1.65
2023-05-19T17:42:18.526Z,2.50
2023-05-19T17:44:45.082Z,1.83
2023-05-19T17:47:11.547Z,1.88
2023-05-19T17:49:40.179Z,1.70
2023-05-19T17:52:07.181Z,1.90
2023-05-19T17:54:33.998Z,1.73
2023-05-19T17:57:03.436Z,1.73
2023-05-19T17:59:30.513Z,1.85
2023-05-19T18:01:57.420Z,1.67
2023-05-19T18:04:24.189Z,1.70
2023-05-19T18:06:51.517Z,1.60
2023-05-19T18:09:19.577Z,1.88
2023-05-19T18:11:46.703Z,1.58
2023-05-19T18:14:13.182Z,1.50
2023-05-19T18:16:39.753Z,1.73
2023-05-19T18:19:06.372Z,1.40
2023-05-19T18:21:33.704Z,1.20
2023-05-19T18:24:04.288Z,1.65
2023-05-19T18:26:31.400Z,2.22
2023-05-19T18:29:02.420Z,1.10
2023-05-19T18:31:28.889Z,1.30
2023-05-19T18:33:55.548Z,1.45
2023-05-19T18:36:23.279Z,1.08
2023-05-19T18:38:50.036Z,1.48
2023-05-19T18:41:16.498Z,1.60
2023-05-19T18:43:43.052Z,1.30
2023-05-19T18:46:09.638Z,1.42
2023-05-19T18:48:36.243Z,1.60
2023-05-19T18:51:03.734Z,1.10
2023-05-19T18:53:34.597Z,1.83
2023-05-19T18:56:01.105Z,1.50
2023-05-19T18:58:27.634Z,1.13
2023-05-19T19:00:57.640Z,1.25
2023-05-19T19:03:24.387Z,1.48
2023-05-19T19:06:00.448Z,1.20
2023-05-19T19:08:26.933Z,1.30
2023-05-19T19:10:59.151Z,1.33
2023-05-19T19:13:25.665Z,1.30
2023-05-19T19:15:52.105Z,1.58
2023-05-19T19:18:18.576Z,1.30
2023-05-19T19:20:45.369Z,1.53
2023-05-19T19:23:11.790Z,1.40
2023-05-19T19:25:38.468Z,1.20
2023-05-19T19:28:04.958Z,1.33
2023-05-19T19:30:31.479Z,1.00
2023-05-19T19:32:59.480Z,1.37
2023-05-19T19:35:26.291Z,1.48
2023-05-19T19:37:52.892Z,1.55
2023-05-19T19:40:19.539Z,1.23
2023-05-19T19:42:45.975Z,1.60
2023-05-19T19:45:14.887Z,1.20
2023-05-19T19:47:42.166Z,1.70
2023-05-19T19:50:09.400Z,1.50
2023-05-19T19:52:36.090Z,1.40
2023-05-19T19:55:02.789Z,1.55
2023-05-19T19:57:31.655Z,1.33
2023-05-19T20:00:04.587Z,1.70
2023-05-19T20:02:31.324Z,1.40
2023-05-19T20:04:57.877Z,1.73
2023-05-19T20:07:24.316Z,2.17
2023-05-19T20:09:51.639Z,2.10
2023-05-19T20:12:18.114Z,1.77
2023-05-19T20:14:44.507Z,1.88
2023-05-19T20:17:10.995Z,1.60
2023-05-19T20:19:37.466Z,2.03
2023-05-19T20:22:04.061Z,1.67
2023-05-19T20:24:30.703Z,2.15
2023-05-19T20:26:57.155Z,1.80
2023-05-19T20:29:23.960Z,2.00
2023-05-19T20:31:50.478Z,2.05
2023-05-19T20:34:17.176Z,2.60
2023-05-19T20:36:43.676Z,2.25
2023-05-19T20:39:10.230Z,2.10
2023-05-19T20:41:36.700Z,2.30
2023-05-19T20:44:03.205Z,2.70
2023-05-19T20:46:29.856Z,2.30
2023-05-19T20:48:56.448Z,2.13
2023-05-19T20:51:25.128Z,2.40
2023-05-19T20:53:51.664Z,2.42
2023-05-19T20:56:19.707Z,2.70
2023-05-19T20:58:46.192Z,2.60
2023-05-19T21:01:12.717Z,2.40
2023-05-19T21:03:39.143Z,2.22
2023-05-19T21:06:05.835Z,2.17
2023-05-19T21:08:32.296Z,2.38
2023-05-19T21:10:59.331Z,2.33
2023-05-19T21:13:25.849Z,2.30
2023-05-19T21:15:52.398Z,2.33
2023-05-19T21:18:18.920Z,2.60
2023-05-19T21:20:45.381Z,2.80
2023-05-19T21:23:12.227Z,2.40
2023-05-19T21:25:39.733Z,2.70
2023-05-19T21:28:06.454Z,2.30
2023-05-19T21:30:33.001Z,2.40
2023-05-19T21:32:59.718Z,2.35
2023-05-19T21:35:26.307Z,2.60
2023-05-19T21:37:52.832Z,2.30
2023-05-19T21:40:19.280Z,2.40
2023-05-19T21:42:46.066Z,2.58
2023-05-19T21:45:12.587Z,2.13
2023-05-19T21:47:39.114Z,2.80
2023-05-19T21:50:06.361Z,2.67
2023-05-19T21:52:32.893Z,2.45
2023-05-19T21:54:59.344Z,2.47
2023-05-19T21:57:25.830Z,2.40
2023-05-19T21:59:52.403Z,3.07
2023-05-19T22:02:19.112Z,2.72
2023-05-19T22:04:45.645Z,2.60
2023-05-19T22:07:12.136Z,2.22
2023-05-19T22:09:38.917Z,2.80
2023-05-19T22:12:05.939Z,2.30
2023-05-19T22:14:32.464Z,2.60
2023-05-19T22:16:58.883Z,2.58
2023-05-19T22:19:25.542Z,2.20
2023-05-19T22:22:01.953Z,2.47
2023-05-19T22:24:36.578Z,2.20
2023-05-19T22:27:03.801Z,2.35
2023-05-19T22:29:30.494Z,2.22
2023-05-19T22:31:56.971Z,2.05
2023-05-19T22:34:23.397Z,2.50
2023-05-19T22:36:49.847Z,2.40
2023-05-19T22:39:16.523Z,2.45
2023-05-19T22:41:43.077Z,2.35
2023-05-19T22:44:11.280Z,2.30
2023-05-19T22:46:37.754Z,2.10
2023-05-19T22:49:04.257Z,2.30
2023-05-19T22:51:31.326Z,2.17
2023-05-19T22:53:57.795Z,2.13
2023-05-19T22:56:24.322Z,2.40
2023-05-19T22:58:50.866Z,2.67
2023-05-19T23:01:17.469Z,2.13
2023-05-19T23:03:44.391Z,2.55
2023-05-19T23:06:10.973Z,2.40
2023-05-19T23:08:37.371Z,2.60
2023-05-19T23:11:03.817Z,2.38
2023-05-19T23:13:31.740Z,2.37
2023-05-19T23:15:58.424Z,2.35
2023-05-19T23:18:24.894Z,2.30
2023-05-19T23:20:51.334Z,2.55
2023-05-19T23:23:17.921Z,2.60
2023-05-19T23:25:44.445Z,2.30
2023-05-19T23:28:11.033Z,2.45
2023-05-19T23:30:38.155Z,2.20
2023-05-19T23:33:05.148Z,2.40
2023-05-19T23:35:31.918Z,2.80
2023-05-19T23:37:58.462Z,2.43
2023-05-19T23:40:24.926Z,2.20
2023-05-19T23:42:51.403Z,2.30
2023-05-19T23:45:17.934Z,2.78
2023-05-19T23:47:44.486Z,2.67
2023-05-19T23:50:11.426Z,2.20
2023-05-19T23:52:37.850Z,2.50
2023-05-19T23:55:04.872Z,2.58
2023-05-19T23:57:31.262Z,2.50
2023-05-19T23:59:57.754Z,2.90
